NOZ4PL EIDW-ENGM
Flight info
| Callsign | NOZ4PL |
|---|---|
| Flight time | N/A |
| Altitude | 39000 |
| Route | ROTEV8E ROTEV DCT GOTNA DCT ALOTI DCT PIPEX M609 RIPAM |
| Aircraft | B38M/M-SDE1FGHILORVWXY/HB1 |
Departure
| Time | 2026-05-07 15:14 |
|---|---|
| Airport | Dublin Airport (EIDW) |
Arrival
| Time | N/A |
|---|---|
| Airport | Oslo-Gardermoen International Airport (ENGM) |
| Time | Latitude | Longitude | Altitude | Speed | Heading |
|---|---|---|---|---|---|
| 2026-05-07 14:53 | 53.42381 | -6.24444 | 227 ft | 0 kts | 135° |
| 2026-05-07 15:04 | 53.42393 | -6.24463 | 227 ft | 4 kts | 141° |
| 2026-05-07 15:04 | 53.42415 | -6.24488 | 229 ft | 4 kts | 155° |
| 2026-05-07 15:05 | 53.42440 | -6.24501 | 229 ft | 4 kts | 177° |
| 2026-05-07 15:05 | 53.42464 | -6.24493 | 228 ft | 4 kts | 218° |
| 2026-05-07 15:05 | 53.42472 | -6.24478 | 228 ft | 1 kts | 242° |
| 2026-05-07 15:07 | 53.42472 | -6.24479 | 228 ft | 1 kts | 242° |
| 2026-05-07 15:07 | 53.42452 | -6.24540 | 229 ft | 14 kts | 241° |
| 2026-05-07 15:08 | 53.42376 | -6.24746 | 227 ft | 25 kts | 227° |
| 2026-05-07 15:08 | 53.42247 | -6.24973 | 228 ft | 29 kts | 228° |
| 2026-05-07 15:08 | 53.42139 | -6.25284 | 229 ft | 10 kts | 243° |
| 2026-05-07 15:08 | 53.42155 | -6.25230 | 229 ft | 18 kts | 243° |
| 2026-05-07 15:09 | 53.42198 | -6.25210 | 228 ft | 25 kts | 310° |
| 2026-05-07 15:09 | 53.42233 | -6.25653 | 227 ft | 43 kts | 275° |
| 2026-05-07 15:09 | 53.42255 | -6.26158 | 228 ft | 44 kts | 273° |
| 2026-05-07 15:09 | 53.42289 | -6.26664 | 228 ft | 35 kts | 276° |
| 2026-05-07 15:10 | 53.42308 | -6.27022 | 229 ft | 32 kts | 274° |
| 2026-05-07 15:10 | 53.42328 | -6.27396 | 227 ft | 33 kts | 275° |
| 2026-05-07 15:10 | 53.42348 | -6.27767 | 228 ft | 31 kts | 276° |
| 2026-05-07 15:10 | 53.42366 | -6.28068 | 228 ft | 20 kts | 271° |
| 2026-05-07 15:11 | 53.42352 | -6.28133 | 228 ft | 1 kts | 223° |
| 2026-05-07 15:11 | 53.42317 | -6.28140 | 229 ft | 8 kts | 148° |
| 2026-05-07 15:11 | 53.42278 | -6.28072 | 230 ft | 4 kts | 126° |
| 2026-05-07 15:11 | 53.42272 | -6.28056 | 231 ft | 0 kts | 120° |
| 2026-05-07 15:12 | 53.42271 | -6.28055 | 231 ft | 2 kts | 120° |
| 2026-05-07 15:12 | 53.42237 | -6.27953 | 234 ft | 17 kts | 120° |
| 2026-05-07 15:12 | 53.42189 | -6.27814 | 237 ft | 23 kts | 117° |
| 2026-05-07 15:12 | 53.42173 | -6.27731 | 237 ft | 0 kts | 97° |
| 2026-05-07 15:13 | 53.42161 | -6.27562 | 237 ft | 51 kts | 96° |
| 2026-05-07 15:13 | 53.42105 | -6.26500 | 235 ft | 129 kts | 95° |
| 2026-05-07 15:14 | 53.41985 | -6.24733 | 570 ft | 163 kts | 98° |
| 2026-05-07 15:14 | 53.41843 | -6.22755 | 1292 ft | 176 kts | 104° |
| 2026-05-07 15:14 | 53.41723 | -6.20698 | 2233 ft | 180 kts | 99° |
| 2026-05-07 15:14 | 53.41619 | -6.18483 | 2899 ft | 201 kts | 98° |
| 2026-05-07 15:15 | 53.41497 | -6.16019 | 3518 ft | 223 kts | 99° |
| 2026-05-07 15:15 | 53.41357 | -6.13298 | 4137 ft | 248 kts | 99° |
| 2026-05-07 15:15 | 53.41202 | -6.10370 | 5224 ft | 250 kts | 100° |
| 2026-05-07 15:15 | 53.41036 | -6.07357 | 6099 ft | 268 kts | 99° |
| 2026-05-07 15:16 | 53.40915 | -6.04154 | 6977 ft | 281 kts | 90° |
| 2026-05-07 15:16 | 53.41405 | -6.00957 | 8025 ft | 293 kts | 65° |
| 2026-05-07 15:16 | 53.42659 | -5.98374 | 8393 ft | 300 kts | 36° |
| 2026-05-07 15:16 | 53.44521 | -5.97023 | 9399 ft | 297 kts | 10° |
| 2026-05-07 15:17 | 53.46591 | -5.96956 | 10270 ft | 303 kts | 347° |
| 2026-05-07 15:17 | 53.48716 | -5.97644 | 10850 ft | 321 kts | 347° |
| 2026-05-07 15:17 | 53.50985 | -5.98353 | 11345 ft | 341 kts | 347° |
| 2026-05-07 15:17 | 53.53370 | -5.99107 | 11959 ft | 355 kts | 347° |
| 2026-05-07 15:18 | 53.55837 | -5.99891 | 12667 ft | 365 kts | 347° |
| 2026-05-07 15:18 | 53.58337 | -6.00693 | 13618 ft | 367 kts | 347° |
| 2026-05-07 15:18 | 53.60865 | -6.01509 | 14373 ft | 373 kts | 347° |
| 2026-05-07 15:18 | 53.63427 | -6.02338 | 15127 ft | 376 kts | 347° |
| 2026-05-07 15:19 | 53.66006 | -6.03174 | 15892 ft | 380 kts | 347° |
| 2026-05-07 15:19 | 53.68615 | -6.04021 | 16636 ft | 383 kts | 347° |
| 2026-05-07 15:19 | 53.71250 | -6.04876 | 17369 ft | 387 kts | 346° |
| 2026-05-07 15:19 | 53.73945 | -6.05387 | 18087 ft | 393 kts | 357° |
| 2026-05-07 15:20 | 53.76689 | -6.05490 | 18721 ft | 397 kts | 356° |
| 2026-05-07 15:20 | 53.79470 | -6.05613 | 19328 ft | 401 kts | 356° |
| 2026-05-07 15:20 | 53.82268 | -6.05733 | 19924 ft | 404 kts | 356° |
| 2026-05-07 15:20 | 53.85092 | -6.05855 | 20531 ft | 408 kts | 356° |
| 2026-05-07 15:21 | 53.87912 | -6.05976 | 21088 ft | 412 kts | 356° |
| 2026-05-07 15:21 | 53.90783 | -6.06100 | 21647 ft | 416 kts | 356° |
| 2026-05-07 15:21 | 53.93684 | -6.06225 | 22216 ft | 419 kts | 356° |
| 2026-05-07 15:21 | 53.96618 | -6.06351 | 22753 ft | 424 kts | 356° |
| 2026-05-07 15:22 | 53.99578 | -6.06479 | 22937 ft | 427 kts | 356° |
| 2026-05-07 15:22 | 54.02548 | -6.06077 | 23374 ft | 430 kts | 12° |
| 2026-05-07 15:22 | 54.05366 | -6.04345 | 23881 ft | 434 kts | 23° |
| 2026-05-07 15:22 | 54.08133 | -6.02214 | 24302 ft | 438 kts | 24° |
| 2026-05-07 15:23 | 54.10921 | -6.00008 | 24778 ft | 442 kts | 25° |
| 2026-05-07 15:23 | 54.13708 | -5.97761 | 25174 ft | 446 kts | 25° |
| 2026-05-07 15:23 | 54.16518 | -5.95469 | 25650 ft | 448 kts | 26° |
| 2026-05-07 15:23 | 54.19342 | -5.93152 | 26089 ft | 451 kts | 26° |
| 2026-05-07 15:24 | 54.22149 | -5.90845 | 26496 ft | 454 kts | 26° |
| 2026-05-07 15:24 | 54.25000 | -5.88496 | 26940 ft | 456 kts | 26° |
| 2026-05-07 15:24 | 54.27875 | -5.86124 | 27343 ft | 459 kts | 26° |
| 2026-05-07 15:24 | 54.30766 | -5.83735 | 27755 ft | 462 kts | 26° |
| 2026-05-07 15:25 | 54.33668 | -5.81333 | 28154 ft | 465 kts | 26° |
| 2026-05-07 15:25 | 54.36586 | -5.78915 | 28551 ft | 468 kts | 27° |
| 2026-05-07 15:25 | 54.39529 | -5.76472 | 28877 ft | 472 kts | 27° |
| 2026-05-07 15:25 | 54.42491 | -5.74008 | 29263 ft | 474 kts | 27° |
| 2026-05-07 15:26 | 54.45473 | -5.71525 | 29650 ft | 477 kts | 27° |
| 2026-05-07 15:26 | 54.48466 | -5.69028 | 30018 ft | 480 kts | 27° |
| 2026-05-07 15:26 | 54.51472 | -5.66516 | 30320 ft | 482 kts | 27° |
| 2026-05-07 15:26 | 54.54500 | -5.63983 | 30630 ft | 484 kts | 27° |
| 2026-05-07 15:27 | 54.57504 | -5.61332 | 30925 ft | 485 kts | 34° |
| 2026-05-07 15:27 | 54.60058 | -5.57727 | 31230 ft | 481 kts | 50° |
| 2026-05-07 15:27 | 54.62162 | -5.53253 | 31541 ft | 480 kts | 55° |
| 2026-05-07 15:27 | 54.64207 | -5.48690 | 31886 ft | 481 kts | 56° |
| 2026-05-07 15:28 | 54.66231 | -5.44078 | 32219 ft | 482 kts | 56° |
| 2026-05-07 15:28 | 54.68232 | -5.39451 | 32647 ft | 480 kts | 57° |
| 2026-05-07 15:28 | 54.70223 | -5.34807 | 33136 ft | 478 kts | 57° |
| 2026-05-07 15:28 | 54.72197 | -5.30188 | 33593 ft | 476 kts | 57° |
| 2026-05-07 15:29 | 54.74156 | -5.25594 | 33990 ft | 475 kts | 57° |
| 2026-05-07 15:29 | 54.76114 | -5.20996 | 34315 ft | 475 kts | 57° |
| 2026-05-07 15:29 | 54.78078 | -5.16371 | 34615 ft | 475 kts | 57° |
| 2026-05-07 15:29 | 54.80035 | -5.11755 | 34900 ft | 476 kts | 57° |
| 2026-05-07 15:30 | 54.81993 | -5.07128 | 35184 ft | 476 kts | 57° |
| 2026-05-07 15:30 | 54.83930 | -5.02543 | 35464 ft | 477 kts | 57° |
| 2026-05-07 15:30 | 54.85891 | -4.97893 | 35754 ft | 477 kts | 57° |
| 2026-05-07 15:30 | 54.87848 | -4.93242 | 36039 ft | 477 kts | 57° |
| 2026-05-07 15:31 | 54.89803 | -4.88588 | 36292 ft | 478 kts | 56° |
| 2026-05-07 15:31 | 54.91758 | -4.83926 | 36651 ft | 477 kts | 56° |
| 2026-05-07 15:31 | 54.93710 | -4.79258 | 36869 ft | 478 kts | 56° |
| 2026-05-07 15:31 | 54.95669 | -4.74568 | 37106 ft | 479 kts | 56° |
| 2026-05-07 15:32 | 54.97627 | -4.69873 | 37351 ft | 479 kts | 56° |
| 2026-05-07 15:32 | 54.99584 | -4.65169 | 37592 ft | 480 kts | 56° |
| 2026-05-07 15:32 | 55.01545 | -4.60446 | 37847 ft | 480 kts | 56° |
| 2026-05-07 15:32 | 55.03499 | -4.55732 | 38089 ft | 481 kts | 56° |
| 2026-05-07 15:33 | 55.05432 | -4.51059 | 38329 ft | 481 kts | 56° |
| 2026-05-07 15:33 | 55.07390 | -4.46319 | 38550 ft | 481 kts | 56° |
| 2026-05-07 15:33 | 55.09341 | -4.41583 | 38728 ft | 481 kts | 56° |
| 2026-05-07 15:33 | 55.11277 | -4.36875 | 38878 ft | 481 kts | 56° |
| 2026-05-07 15:34 | 55.15180 | -4.27359 | 38967 ft | 483 kts | 56° |
| 2026-05-07 15:34 | 55.19100 | -4.17766 | 38972 ft | 485 kts | 56° |
| 2026-05-07 15:35 | 55.23023 | -4.08126 | 38966 ft | 486 kts | 56° |
| 2026-05-07 15:35 | 55.26945 | -3.98452 | 38964 ft | 486 kts | 56° |
| 2026-05-07 15:36 | 55.30860 | -3.88758 | 38964 ft | 487 kts | 56° |
| 2026-05-07 15:36 | 55.34753 | -3.79077 | 38964 ft | 484 kts | 56° |
| 2026-05-07 15:37 | 55.38605 | -3.69463 | 38971 ft | 484 kts | 56° |
| 2026-05-07 15:37 | 55.42474 | -3.59768 | 38961 ft | 484 kts | 56° |
| 2026-05-07 15:38 | 55.46337 | -3.50051 | 38967 ft | 484 kts | 56° |
| 2026-05-07 15:38 | 55.50192 | -3.40315 | 38974 ft | 485 kts | 56° |
| 2026-05-07 15:39 | 55.54048 | -3.30538 | 38956 ft | 485 kts | 56° |
| 2026-05-07 15:39 | 55.57892 | -3.20750 | 38966 ft | 485 kts | 56° |
| 2026-05-07 15:40 | 55.61731 | -3.10940 | 38962 ft | 485 kts | 56° |
| 2026-05-07 15:40 | 55.65559 | -3.01116 | 38959 ft | 485 kts | 56° |
| 2026-05-07 15:41 | 55.69385 | -2.91258 | 38954 ft | 485 kts | 56° |
| 2026-05-07 15:41 | 55.73191 | -2.81410 | 38961 ft | 485 kts | 57° |
| 2026-05-07 15:42 | 55.76963 | -2.71614 | 38962 ft | 484 kts | 56° |
| 2026-05-07 15:42 | 55.80762 | -2.61706 | 38958 ft | 485 kts | 57° |
| 2026-05-07 15:43 | 55.84557 | -2.51770 | 38958 ft | 485 kts | 57° |
| 2026-05-07 15:43 | 55.88337 | -2.41831 | 38960 ft | 485 kts | 57° |
| 2026-05-07 15:44 | 55.92111 | -2.31871 | 38958 ft | 485 kts | 57° |
| 2026-05-07 15:44 | 55.95877 | -2.21890 | 38959 ft | 484 kts | 57° |
| 2026-05-07 15:45 | 55.99628 | -2.11906 | 38959 ft | 483 kts | 57° |
| 2026-05-07 15:45 | 56.03360 | -2.01931 | 38968 ft | 483 kts | 57° |
| 2026-05-07 15:46 | 56.08924 | -1.86988 | 38969 ft | 483 kts | 57° |
| 2026-05-07 15:47 | 56.12637 | -1.76961 | 38978 ft | 483 kts | 57° |
| 2026-05-07 15:47 | 56.16343 | -1.66919 | 38967 ft | 483 kts | 57° |
| 2026-05-07 15:48 | 56.20046 | -1.56836 | 38977 ft | 484 kts | 57° |
| 2026-05-07 15:48 | 56.23745 | -1.46725 | 38979 ft | 484 kts | 57° |
| 2026-05-07 15:49 | 56.27432 | -1.36603 | 38987 ft | 484 kts | 57° |
| 2026-05-07 15:49 | 56.31088 | -1.26526 | 38991 ft | 484 kts | 57° |
| 2026-05-07 15:50 | 56.34764 | -1.16352 | 38993 ft | 485 kts | 57° |
| 2026-05-07 15:50 | 56.38439 | -1.06136 | 39000 ft | 484 kts | 57° |
| 2026-05-07 15:51 | 56.42097 | -0.95925 | 38998 ft | 484 kts | 57° |
| 2026-05-07 15:51 | 56.45742 | -0.85709 | 38999 ft | 484 kts | 58° |
| 2026-05-07 15:52 | 56.49384 | -0.75458 | 39007 ft | 484 kts | 58° |
| 2026-05-07 15:52 | 56.53019 | -0.65180 | 39007 ft | 484 kts | 58° |
| 2026-05-07 15:53 | 56.56638 | -0.54906 | 39008 ft | 484 kts | 58° |
| 2026-05-07 15:53 | 56.60254 | -0.44596 | 39019 ft | 485 kts | 58° |
| 2026-05-07 15:54 | 56.63847 | -0.34310 | 39021 ft | 485 kts | 58° |
| 2026-05-07 15:54 | 56.67453 | -0.23940 | 39020 ft | 485 kts | 58° |
| 2026-05-07 15:55 | 56.71052 | -0.13546 | 39020 ft | 485 kts | 58° |
| 2026-05-07 15:55 | 56.74638 | -0.03143 | 39021 ft | 485 kts | 58° |
| 2026-05-07 15:56 | 56.78219 | 0.07286 | 39032 ft | 485 kts | 58° |
| 2026-05-07 15:56 | 56.81487 | 0.16848 | 39019 ft | 485 kts | 58° |
| 2026-05-07 15:57 | 56.85047 | 0.27305 | 39033 ft | 485 kts | 58° |
| 2026-05-07 15:57 | 56.88615 | 0.37833 | 39035 ft | 487 kts | 58° |
| 2026-05-07 15:58 | 56.92178 | 0.48389 | 39040 ft | 487 kts | 59° |
| 2026-05-07 15:58 | 56.95731 | 0.58965 | 39028 ft | 487 kts | 59° |
| 2026-05-07 15:59 | 56.99263 | 0.69525 | 39034 ft | 486 kts | 59° |
| 2026-05-07 15:59 | 57.02788 | 0.80111 | 39056 ft | 486 kts | 59° |
| 2026-05-07 16:00 | 57.06280 | 0.90641 | 39046 ft | 486 kts | 59° |
| 2026-05-07 16:00 | 57.09790 | 1.01276 | 39056 ft | 486 kts | 59° |
| 2026-05-07 16:01 | 57.12728 | 1.10213 | 39056 ft | 488 kts | 59° |
| 2026-05-07 16:01 | 57.16209 | 1.20844 | 39049 ft | 488 kts | 59° |
| 2026-05-07 16:02 | 57.19700 | 1.31559 | 39058 ft | 488 kts | 59° |
| 2026-05-07 16:02 | 57.23188 | 1.42309 | 39058 ft | 488 kts | 59° |
| 2026-05-07 16:03 | 57.26658 | 1.53051 | 39060 ft | 488 kts | 59° |
| 2026-05-07 16:03 | 57.30128 | 1.63843 | 39060 ft | 488 kts | 59° |
| 2026-05-07 16:04 | 57.33587 | 1.74652 | 39072 ft | 488 kts | 59° |
| 2026-05-07 16:04 | 57.37028 | 1.85451 | 39092 ft | 487 kts | 59° |
| 2026-05-07 16:05 | 57.40469 | 1.96302 | 39077 ft | 488 kts | 59° |
| 2026-05-07 16:05 | 57.43881 | 2.07109 | 39078 ft | 489 kts | 59° |
| 2026-05-07 16:06 | 57.47304 | 2.18003 | 39080 ft | 489 kts | 60° |
| 2026-05-07 16:06 | 57.50718 | 2.28915 | 39072 ft | 488 kts | 60° |
| 2026-05-07 16:07 | 57.54126 | 2.39863 | 39080 ft | 489 kts | 60° |
| 2026-05-07 16:07 | 57.57523 | 2.50822 | 39090 ft | 488 kts | 60° |
| 2026-05-07 16:08 | 57.60910 | 2.61803 | 39098 ft | 488 kts | 60° |
| 2026-05-07 16:08 | 57.64288 | 2.72791 | 39095 ft | 490 kts | 60° |
| 2026-05-07 16:09 | 57.67677 | 2.83864 | 39090 ft | 490 kts | 60° |
| 2026-05-07 16:09 | 57.71053 | 2.94942 | 39103 ft | 490 kts | 60° |
| 2026-05-07 16:10 | 57.74416 | 3.06030 | 39094 ft | 490 kts | 60° |
| 2026-05-07 16:10 | 57.77751 | 3.17074 | 39115 ft | 489 kts | 60° |
| 2026-05-07 16:11 | 57.81087 | 3.28171 | 39114 ft | 489 kts | 60° |
| 2026-05-07 16:11 | 57.84423 | 3.39318 | 39103 ft | 489 kts | 60° |